Time;durP1;ratioP1;P1;durP2;ratioP2;P2;SDS_P1;SDS_P2;PMS_P1;PMS_P2;Temp;Humidity;BMP_temperature;BMP_pressure;BME280_temperature;BME280_humidity;BME280_pressure;Samples;Min_cycle;Max_cycle;Signal;HPM_P1;HPM_P2
2023/04/14 00:00:14;;;;;;;12.38;8.10;;;;;;;6.90;100.00;99690.09;4948291;29;20059;-93
2023/04/14 00:02:41;;;;;;;11.65;7.43;;;;;;;6.84;100.00;99692.97;4940436;29;20051;-90
2023/04/14 00:05:09;;;;;;;10.07;7.72;;;;;;;6.54;100.00;99651.25;4935332;29;20104;-90
2023/04/14 00:07:37;;;;;;;9.95;7.85;;;;;;;6.71;100.00;99687.38;4929817;28;20060;-92
2023/04/14 00:10:07;;;;;;;13.30;7.93;;;;;;;6.79;100.00;99694.94;4940611;29;20052;-90
2023/04/14 00:12:42;;;;;;;10.85;9.13;;;;;;;6.71;100.00;99683.91;4917149;29;20141;-92
2023/04/14 00:15:09;;;;;;;13.63;8.93;;;;;;;6.78;100.00;99698.47;4927941;29;20047;-92
2023/04/14 00:17:38;;;;;;;11.93;8.98;;;;;;;6.76;100.00;99705.59;4944323;29;20178;-92
2023/04/14 00:20:08;;;;;;;11.65;8.00;;;;;;;6.71;100.00;99707.56;4904594;29;20048;-92
2023/04/14 00:22:35;;;;;;;13.02;9.05;;;;;;;6.59;100.00;99687.91;4912028;29;20063;-91
2023/04/14 00:25:02;;;;;;;11.40;8.55;;;;;;;6.61;100.00;99689.53;4940511;29;20048;-91
2023/04/14 00:27:39;;;;;;;10.70;8.20;;;;;;;6.68;100.00;99698.03;4937664;29;20048;-90
2023/04/14 00:30:18;;;;;;;11.45;8.93;;;;;;;6.31;100.00;99651.34;4920805;29;20065;-92
2023/04/14 00:32:49;;;;;;;11.25;8.57;;;;;;;6.44;100.00;99678.03;4937879;29;20047;-93
2023/04/14 00:35:26;;;;;;;11.30;8.88;;;;;;;6.55;100.00;99713.47;4921543;29;20052;-94
2023/04/14 00:37:57;;;;;;;10.73;8.50;;;;;;;6.07;100.00;99632.19;4943458;29;20055;-91
2023/04/14 00:40:28;;;;;;;12.85;9.38;;;;;;;6.36;100.00;99680.94;4923130;29;20052;-91
2023/04/14 00:43:01;;;;;;;14.68;9.63;;;;;;;6.45;100.00;99704.25;4929683;29;20134;-91
2023/04/14 00:45:28;;;;;;;12.73;8.98;;;;;;;6.39;100.00;99691.34;4921612;29;20154;-92
2023/04/14 00:47:59;;;;;;;11.95;9.05;;;;;;;6.39;100.00;99691.34;4898295;29;20056;-92
2023/04/14 00:50:28;;;;;;;13.88;9.68;;;;;;;6.29;100.00;99692.66;4925907;29;20052;-92
2023/04/14 00:53:01;;;;;;;15.77;10.27;;;;;;;6.19;100.00;99692.16;4918289;29;20055;-92
2023/04/14 00:55:35;;;;;;;15.95;10.23;;;;;;;6.08;100.00;99686.47;4942790;29;20047;-93
2023/04/14 00:58:09;;;;;;;14.27;10.82;;;;;;;6.01;100.00;99681.50;4928466;29;20103;-93
2023/04/14 01:00:40;;;;;;;14.63;11.27;;;;;;;5.93;100.00;99681.84;4933362;29;20135;-91
2023/04/14 01:03:08;;;;;;;15.63;11.63;;;;;;;5.55;100.00;99625.50;4930102;29;20079;-92
2023/04/14 01:05:45;;;;;;;15.15;11.70;;;;;;;5.70;100.00;99666.06;4900373;29;20044;-93
2023/04/14 01:08:13;;;;;;;13.60;10.88;;;;;;;5.69;100.00;99673.09;4924704;28;20083;-94
2023/04/14 01:10:49;;;;;;;13.73;10.57;;;;;;;5.74;100.00;99691.31;4931632;28;20036;-93
2023/04/14 01:13:37;;;;;;;14.32;10.55;;;;;;;5.66;100.00;99678.47;4947805;28;20040;-92
2023/04/14 01:16:30;;;;;;;14.45;10.70;;;;;;;5.45;100.00;99661.75;4940321;29;20079;-93
2023/04/14 01:19:41;;;;;;;13.65;10.13;;;;;;;5.37;100.00;99670.81;4957567;29;20059;-93
2023/04/14 01:22:13;;;;;;;13.25;10.13;;;;;;;5.40;100.00;99694.34;4920871;29;20071;-92
2023/04/14 01:25:21;;;;;;;15.27;10.38;;;;;;;5.12;100.00;99649.88;4932394;29;20058;-94
2023/04/14 01:28:18;;;;;;;14.15;10.05;;;;;;;5.11;100.00;99635.91;4944486;29;20076;-93
2023/04/14 01:31:01;;;;;;;13.95;10.75;;;;;;;5.19;100.00;99670.63;4944815;29;20091;-95
2023/04/14 01:33:39;;;;;;;13.93;10.70;;;;;;;4.62;100.00;99591.38;4932412;28;20067;-93
2023/04/14 01:36:41;;;;;;;14.13;10.70;;;;;;;5.31;100.00;99708.69;4930167;29;20044;-92
2023/04/14 01:39:37;;;;;;;14.48;10.40;;;;;;;5.07;100.00;99676.28;4945855;29;20052;-94
2023/04/14 01:42:15;;;;;;;13.93;10.32;;;;;;;5.04;100.00;99672.91;4932508;29;20409;-93
2023/04/14 01:44:55;;;;;;;15.60;10.45;;;;;;;4.87;100.00;99631.56;4930639;29;20044;-93
2023/04/14 01:47:27;;;;;;;13.73;10.32;;;;;;;5.29;100.00;99700.84;4917992;29;20499;-95
2023/04/14 01:49:59;;;;;;;12.77;10.07;;;;;;;5.05;100.00;99661.50;4920504;29;20076;-94
2023/04/14 01:52:34;;;;;;;12.18;9.77;;;;;;;5.18;100.00;99699.53;4908521;29;20052;-94
2023/04/14 01:55:08;;;;;;;15.73;10.82;;;;;;;4.89;100.00;99664.66;4930012;29;20044;-94
2023/04/14 01:57:38;;;;;;;13.32;10.55;;;;;;;5.02;100.00;99690.50;4908894;29;20046;-93
2023/04/14 02:00:13;;;;;;;14.68;10.45;;;;;;;5.05;100.00;99701.72;4913436;29;20102;-94
2023/04/14 02:02:57;;;;;;;14.90;11.32;;;;;;;4.96;100.00;99683.69;4916321;29;20069;-94
2023/04/14 02:05:36;;;;;;;15.15;11.82;;;;;;;4.79;100.00;99672.94;4899864;29;20103;-94
2023/04/14 02:08:30;;;;;;;16.75;11.57;;;;;;;4.86;100.00;99695.44;4934894;29;20063;-94
2023/04/14 02:11:08;;;;;;;17.42;11.07;;;;;;;4.62;100.00;99667.41;4918370;29;20052;-95
2023/04/14 02:13:42;;;;;;;14.95;11.77;;;;;;;4.35;100.00;99632.50;4941373;29;20047;-94
2023/04/14 02:16:19;;;;;;;17.58;12.60;;;;;;;4.75;100.00;99708.03;4920325;29;20048;-95
2023/04/14 02:18:48;;;;;;;16.23;11.68;;;;;;;4.73;100.00;99708.09;4930555;29;20058;-95
2023/04/14 02:21:19;;;;;;;16.35;11.65;;;;;;;4.65;100.00;99696.16;4911334;29;20137;-94
2023/04/14 02:23:46;;;;;;;15.00;11.45;;;;;;;4.71;100.00;99712.56;4925100;29;20099;-94
2023/04/14 02:26:33;;;;;;;18.23;12.63;;;;;;;4.72;100.00;99716.03;4933610;29;20143;-95
2023/04/14 02:29:20;;;;;;;17.75;12.00;;;;;;;4.14;100.00;99631.44;4933682;29;20107;-95
2023/04/14 02:32:22;;;;;;;13.98;10.52;;;;;;;4.77;100.00;99727.19;4930221;29;20058;-94
2023/04/14 02:35:12;;;;;;;15.43;10.98;;;;;;;4.54;100.00;99678.16;4938532;29;20112;-94
2023/04/14 02:37:44;;;;;;;14.15;10.15;;;;;;;4.80;100.00;99722.72;4923475;29;20063;-94
2023/04/14 02:40:25;;;;;;;13.70;10.15;;;;;;;4.66;100.00;99709.22;4917561;29;20050;-95
2023/04/14 02:43:29;;;;;;;14.25;9.82;;;;;;;4.62;100.00;99704.97;4927107;29;20070;-94
2023/04/14 02:46:05;;;;;;;13.40;10.57;;;;;;;4.76;100.00;99735.97;4918114;29;20040;-94
2023/04/14 02:48:54;;;;;;;23.77;15.45;;;;;;;4.72;100.00;99735.22;4927683;29;20107;-95
2023/04/14 02:51:38;;;;;;;20.23;13.82;;;;;;;4.34;100.00;99688.47;4919217;29;20044;-94
2023/04/14 02:54:07;;;;;;;14.70;11.23;;;;;;;4.25;100.00;99710.56;4920318;29;20039;-94
2023/04/14 02:56:39;;;;;;;16.50;11.45;;;;;;;4.09;100.00;99686.63;4938943;28;20112;-95
2023/04/14 02:59:11;;;;;;;16.73;11.20;;;;;;;3.86;100.00;99652.44;4917665;29;20052;-95
2023/04/14 03:01:43;;;;;;;16.98;11.93;;;;;;;3.88;100.00;99654.13;4942666;28;20043;-94
2023/04/14 03:04:14;;;;;;;15.65;12.02;;;;;;;4.52;100.00;99748.16;4937030;29;20107;-95
2023/04/14 03:06:46;;;;;;;14.23;12.25;;;;;;;4.52;100.00;99749.00;4925453;28;20121;-95
2023/04/14 03:09:19;;;;;;;17.60;12.88;;;;;;;4.14;100.00;99681.22;4937743;28;20072;-94
2023/04/14 03:11:47;;;;;;;17.85;12.07;;;;;;;4.35;100.00;99713.75;4934825;28;20044;-95
2023/04/14 03:14:20;;;;;;;18.45;12.93;;;;;;;4.66;100.00;99759.03;4931765;29;20040;-94
2023/04/14 03:17:09;;;;;;;15.05;12.05;;;;;;;4.13;100.00;99658.56;4934103;28;20036;-93
2023/04/14 03:19:40;;;;;;;18.67;12.82;;;;;;;4.73;100.00;99755.28;4923068;29;20044;-94
2023/04/14 03:22:14;;;;;;;18.85;12.27;;;;;;;4.71;100.00;99735.31;4925829;28;20124;-95
2023/04/14 03:24:43;;;;;;;17.58;12.32;;;;;;;4.68;100.00;99724.91;4923402;29;20147;-93
2023/04/14 03:27:26;;;;;;;17.25;12.90;;;;;;;4.72;100.00;99729.16;4920995;29;20059;-92
2023/04/14 03:30:24;;;;;;;17.05;12.50;;;;;;;4.78;100.00;99744.66;4922502;29;20157;-93
2023/04/14 03:32:57;;;;;;;15.30;12.25;;;;;;;4.68;100.00;99727.53;4933280;29;20123;-95
2023/04/14 03:35:27;;;;;;;16.30;12.23;;;;;;;4.68;100.00;99727.53;4916391;29;20050;-92
2023/04/14 03:38:01;;;;;;;14.38;11.60;;;;;;;4.76;100.00;99735.97;4901907;29;20103;-95
2023/04/14 03:40:34;;;;;;;15.70;12.25;;;;;;;4.73;100.00;99742.19;4910177;29;20084;-93
2023/04/14 03:43:04;;;;;;;18.42;11.70;;;;;;;4.66;100.00;99730.19;4940799;29;20052;-93
2023/04/14 03:45:32;;;;;;;16.25;12.05;;;;;;;4.68;100.00;99738.00;4915981;29;20402;-94
2023/04/14 03:48:06;;;;;;;15.35;11.57;;;;;;;4.62;100.00;99727.72;4919172;29;20111;-94
2023/04/14 03:50:40;;;;;;;16.55;12.65;;;;;;;4.70;100.00;99736.22;4899063;29;20052;-94
2023/04/14 03:53:28;;;;;;;18.23;12.13;;;;;;;4.05;100.00;99621.28;4917922;29;20087;-93
2023/04/14 03:56:12;;;;;;;18.85;12.88;;;;;;;4.17;100.00;99634.84;4912478;29;20068;-92
2023/04/14 03:58:46;;;;;;;14.60;12.20;;;;;;;4.22;100.00;99639.94;4915432;29;20056;-93
2023/04/14 04:01:16;;;;;;;15.80;11.48;;;;;;;4.82;100.00;99735.78;4918789;29;20065;-94
2023/04/14 04:03:45;;;;;;;16.75;11.93;;;;;;;4.62;100.00;99706.75;4917999;29;20044;-94
2023/04/14 04:06:16;;;;;;;16.65;12.18;;;;;;;4.75;100.00;99739.50;4910696;29;20091;-94
2023/04/14 04:08:52;;;;;;;15.10;11.80;;;;;;;4.67;100.00;99731.06;4914325;29;20040;-93
2023/04/14 04:11:36;;;;;;;16.80;11.63;;;;;;;4.39;100.00;99690.03;4914958;29;20152;-94
2023/04/14 04:14:09;;;;;;;14.23;11.52;;;;;;;4.49;100.00;99701.91;4921182;29;20076;-95
2023/04/14 04:17:07;;;;;;;15.30;11.63;;;;;;;4.42;100.00;99694.28;4888962;29;20051;-94
2023/04/14 04:19:41;;;;;;;16.40;12.15;;;;;;;4.22;100.00;99659.13;4920969;29;20044;-94
2023/04/14 04:22:20;;;;;;;14.23;11.88;;;;;;;4.57;100.00;99717.38;4925436;29;20052;-96
2023/04/14 04:24:55;;;;;;;17.42;11.65;;;;;;;4.73;100.00;99742.19;4928308;29;20044;-94
2023/04/14 04:27:24;;;;;;;17.77;11.75;;;;;;;4.89;100.00;99758.25;4928277;29;20036;-95
2023/04/14 04:30:08;;;;;;;23.65;13.73;;;;;;;4.97;100.00;99763.25;4944855;29;20076;-94
2023/04/14 04:32:41;;;;;;;23.92;12.52;;;;;;;4.51;100.00;99688.75;4899825;29;20048;-94
2023/04/14 04:35:20;;;;;;;18.23;12.40;;;;;;;4.39;100.00;99674.31;4947920;29;20054;-94
2023/04/14 04:38:00;;;;;;;25.08;14.23;;;;;;;4.74;100.00;99738.66;4931809;29;20048;-94
2023/04/14 04:40:48;;;;;;;24.23;13.90;;;;;;;4.59;100.00;99720.81;4930883;29;20052;-94
2023/04/14 04:43:24;;;;;;;28.58;15.18;;;;;;;4.76;100.00;99751.72;4938298;29;20052;-94
2023/04/14 04:46:37;;;;;;;33.25;16.63;;;;;;;4.97;100.00;99776.38;4914764;29;20137;-93
2023/04/14 04:49:37;;;;;;;33.80;16.50;;;;;;;4.42;100.00;99673.31;4947549;29;20044;-93
2023/04/14 04:52:35;;;;;;;66.90;19.98;;;;;;;5.02;100.00;99788.44;4935877;29;20099;-93
2023/04/14 04:55:18;;;;;;;43.72;19.08;;;;;;;4.66;100.00;99721.47;4920623;29;20389;-94
2023/04/14 04:58:00;;;;;;;75.65;19.17;;;;;;;4.85;100.00;99761.91;4924450;29;20063;-93
2023/04/14 05:00:48;;;;;;;58.75;19.05;;;;;;;4.94;100.00;99785.22;4945665;28;20032;-92
2023/04/14 05:03:30;;;;;;;54.72;19.27;;;;;;;4.86;100.00;99774.13;4940402;28;20068;-91
2023/04/14 05:05:59;;;;;;;62.80;19.55;;;;;;;4.88;100.00;99786.25;4941139;28;20058;-95
2023/04/14 05:08:29;;;;;;;49.40;19.02;;;;;;;4.85;100.00;99788.16;4942162;28;20032;-94
2023/04/14 05:10:56;;;;;;;43.00;20.02;;;;;;;4.76;100.00;99772.69;4942023;28;20032;-93
2023/04/14 05:13:37;;;;;;;52.55;20.15;;;;;;;4.68;100.00;99775.59;4952332;28;20035;-94
2023/04/14 05:16:17;;;;;;;45.45;19.98;;;;;;;4.83;100.00;99788.19;4953181;28;20070;-95
2023/04/14 05:18:55;;;;;;;42.00;18.60;;;;;;;4.84;100.00;99802.19;4922335;29;20064;-95
2023/04/14 05:21:25;;;;;;;41.17;19.48;;;;;;;4.62;100.00;99738.22;4922506;28;20059;-94
2023/04/14 05:25:01;;;;;;;39.75;18.55;;;;;;;4.95;100.00;99797.41;4843085;27;7263025;-95
2023/04/14 05:27:53;;;;;;;52.00;20.65;;;;;;;4.43;100.00;99706.50;5055388;28;20048;-96
2023/04/14 05:30:39;;;;;;;45.15;20.70;;;;;;;4.46;100.00;99702.00;5066665;28;20047;-94
2023/04/14 05:33:13;;;;;;;48.53;21.75;;;;;;;4.89;100.00;99750.38;5050201;28;20045;-94
2023/04/14 05:35:59;;;;;;;39.42;20.13;;;;;;;4.85;100.00;99754.03;5043253;28;20033;-94
2023/04/14 05:38:43;;;;;;;40.75;19.50;;;;;;;5.04;100.00;99781.34;5063087;28;20106;-95
2023/04/14 05:41:16;;;;;;;44.08;19.90;;;;;;;4.79;100.00;99731.50;5056493;28;20553;-95
2023/04/14 05:44:11;;;;;;;42.42;19.55;;;;;;;5.27;100.00;99793.69;5060540;28;20045;-94
2023/04/14 05:47:10;;;;;;;40.63;20.27;;;;;;;5.32;100.00;99778.66;5075744;28;20131;-94
2023/04/14 05:49:59;;;;;;;35.10;18.42;;;;;;;5.22;100.00;99758.84;5063182;28;20071;-94
2023/04/14 05:52:41;;;;;;;52.88;20.48;;;;;;;4.81;100.00;99710.47;5038092;28;20041;-95
2023/04/14 05:55:39;;;;;;;40.42;19.65;;;;;;;5.07;100.00;99781.25;5084072;28;20067;-95
2023/04/14 05:58:21;;;;;;;38.40;18.60;;;;;;;5.26;100.00;99805.97;5070983;28;20041;-94
2023/04/14 06:00:55;;;;;;;38.90;20.02;;;;;;;5.37;100.00;99802.09;5050767;28;20037;-95
2023/04/14 06:03:43;;;;;;;43.25;20.30;;;;;;;5.27;100.00;99789.31;5053759;28;20037;-95
2023/04/14 06:06:25;;;;;;;44.67;21.42;;;;;;;5.33;100.00;99805.75;5059465;28;20041;-95
2023/04/14 06:09:08;;;;;;;41.40;20.70;;;;;;;5.26;100.00;99805.97;5059556;28;20087;-93
2023/04/14 06:11:46;;;;;;;43.33;21.73;;;;;;;4.97;100.00;99766.75;5066531;28;20127;-94
2023/04/14 06:14:28;;;;;;;40.83;20.02;;;;;;;5.15;100.00;99802.84;5069128;28;20072;-93
2023/04/14 06:17:29;;;;;;;38.13;20.23;;;;;;;5.21;100.00;99801.78;5066429;28;20063;-96
2023/04/14 06:20:02;;;;;;;39.60;19.88;;;;;;;5.08;100.00;99790.84;5055395;28;20037;-92
2023/04/14 06:22:44;;;;;;;39.97;20.77;;;;;;;4.87;100.00;99760.97;5070622;28;20069;-94
2023/04/14 06:25:29;;;;;;;45.80;21.15;;;;;;;4.98;100.00;99778.09;5053005;28;20042;-95
2023/04/14 06:28:02;;;;;;;53.50;21.85;;;;;;;4.69;100.00;99742.34;5064423;28;20085;-94
2023/04/14 06:30:32;;;;;;;46.38;20.88;;;;;;;4.93;100.00;99792.22;5064729;28;20080;-95
2023/04/14 06:33:03;;;;;;;47.30;22.52;;;;;;;4.75;100.00;99763.13;5037497;28;20072;-94
2023/04/14 06:35:53;;;;;;;50.60;22.25;;;;;;;4.76;100.00;99773.56;5027252;28;20064;-94
2023/04/14 06:38:36;;;;;;;53.72;22.58;;;;;;;4.96;100.00;99791.25;5045759;28;20138;-94
2023/04/14 06:41:43;;;;;;;47.53;22.55;;;;;;;5.14;100.00;99801.13;5061536;28;20067;-95
2023/04/14 06:44:36;;;;;;;44.35;21.80;;;;;;;5.10;100.00;99768.03;5040458;28;20084;-94
2023/04/14 06:47:05;;;;;;;46.80;21.98;;;;;;;5.10;100.00;99759.31;5029671;28;20026;-94
2023/04/14 06:49:38;;;;;;;47.90;22.63;;;;;;;5.17;100.00;99738.06;5054380;28;20041;-94
2023/04/14 06:52:16;;;;;;;45.47;22.40;;;;;;;5.72;100.00;99803.47;5054124;28;20088;-94
2023/04/14 06:55:07;;;;;;;46.58;21.88;;;;;;;5.45;100.00;99750.19;5049662;28;20033;-95
2023/04/14 06:57:41;;;;;;;39.08;20.63;;;;;;;5.85;100.00;99804.72;5113369;23;20090;-93
2023/04/14 07:00:17;;;;;;;42.75;22.13;;;;;;;5.98;100.00;99808.66;5082859;28;20048;-93
2023/04/14 07:03:00;;;;;;;40.38;22.40;;;;;;;5.65;100.00;99739.81;5075203;28;20048;-94
2023/04/14 07:05:42;;;;;;;44.20;22.80;;;;;;;5.95;100.00;99766.72;5079214;28;20048;-94
2023/04/14 07:08:10;;;;;;;40.30;22.43;;;;;;;5.96;100.00;99757.94;5082506;28;20075;-93
2023/04/14 07:10:40;;;;;;;37.80;20.70;;;;;;;5.94;100.00;99751.88;5071986;28;20036;-93
2023/04/14 07:13:09;;;;;;;37.67;21.00;;;;;;;6.06;100.00;99772.41;5076640;28;20049;-93
2023/04/14 07:15:38;;;;;;;;;;;;;;;6.27;100.00;99815.44;5089457;28;20125;-93
2023/04/14 07:18:21;;;;;;;36.17;20.23;;;;;;;6.15;100.00;99794.84;5066258;28;19916;-93
2023/04/14 07:20:53;;;;;;;36.28;21.25;;;;;;;6.08;100.00;99781.09;5075261;28;20044;-93
2023/04/14 07:23:23;;;;;;;37.85;22.00;;;;;;;6.21;100.00;99794.63;5075956;28;20070;-94
2023/04/14 07:26:04;;;;;;;36.28;21.45;;;;;;;6.12;100.00;99771.34;5057608;28;20107;-94
2023/04/14 07:28:48;;;;;;;37.08;21.05;;;;;;;6.12;100.00;99738.03;5083743;28;20066;-93
2023/04/14 07:31:24;;;;;;;37.78;20.70;;;;;;;6.53;100.00;99783.69;5069678;28;20040;-93
2023/04/14 07:33:56;;;;;;;38.30;21.52;;;;;;;6.85;100.00;99832.38;5087438;28;20120;-93
2023/04/14 07:36:38;;;;;;;42.95;22.58;;;;;;;6.71;100.00;99786.50;5067893;28;20066;-93
2023/04/14 07:39:13;;;;;;;39.08;21.83;;;;;;;7.10;100.00;99818.19;5080217;28;20051;-94
2023/04/14 07:41:57;;;;;;;38.38;21.48;;;;;;;7.17;100.00;99785.44;5080863;28;20037;-94
2023/04/14 07:44:38;;;;;;;35.58;20.65;;;;;;;7.42;100.00;99766.78;5073641;28;20040;-94
2023/04/14 07:47:06;;;;;;;36.38;20.15;;;;;;;7.85;100.00;99821.09;5053574;28;20033;-93
2023/04/14 07:49:53;;;;;;;40.55;21.25;;;;;;;7.72;100.00;99773.31;5080711;28;20098;-94
2023/04/14 07:52:28;;;;;;;37.13;20.02;;;;;;;7.96;100.00;99819.66;5083270;28;20053;-95
2023/04/14 07:55:08;;;;;;;35.42;20.83;;;;;;;7.92;100.00;99804.91;5091154;28;20102;-93
2023/04/14 07:57:52;;;;;;;33.92;20.27;;;;;;;7.99;100.00;99803.72;5293103;23;20064;-93
2023/04/14 08:00:26;;;;;;;35.90;21.00;;;;;;;7.87;100.00;99808.69;5093306;28;20041;-95
2023/04/14 08:03:15;;;;;;;;;;;;;;;7.44;100.00;99804.44;5100266;28;20062;-94
2023/04/14 08:05:52;;;;;;;37.45;22.23;;;;;;;7.13;100.00;99810.19;5088534;28;19979;-94
2023/04/14 08:08:38;;;;;;;43.20;23.33;;;;;;;6.66;100.00;99763.84;5070158;28;20086;-93
2023/04/14 08:11:12;;;;;;;40.83;22.95;;;;;;;6.48;100.00;99753.22;5096531;28;20045;-93
2023/04/14 08:14:00;;;;;;;45.47;23.63;;;;;;;6.73;100.00;99808.34;5091367;28;20054;-93
2023/04/14 08:16:42;;;;;;;47.20;24.90;;;;;;;6.15;100.00;99708.09;5082938;28;20044;-92
2023/04/14 08:19:27;;;;;;;46.45;25.25;;;;;;;6.64;100.00;99799.91;5103001;28;20032;-93
2023/04/14 08:22:00;;;;;;;48.70;25.15;;;;;;;6.63;100.00;99785.03;5090138;28;20032;-95
2023/04/14 08:24:40;;;;;;;45.80;25.35;;;;;;;6.70;100.00;99775.13;5080902;28;20055;-95
2023/04/14 08:27:17;;;;;;;41.88;24.20;;;;;;;6.86;100.00;99775.34;5098825;28;20114;-94
2023/04/14 08:30:01;;;;;;;43.80;22.37;;;;;;;6.87;100.00;99756.88;5086974;28;20064;-95
2023/04/14 08:32:51;;;;;;;34.53;20.55;;;;;;;7.06;100.00;99795.56;5073101;28;20078;-95
2023/04/14 08:35:18;;;;;;;40.90;23.10;;;;;;;7.07;100.00;99799.94;5079034;28;20040;-94
2023/04/14 08:38:08;;;;;;;41.63;23.23;;;;;;;7.28;100.00;99755.06;5083921;28;20063;-93
2023/04/14 08:40:42;;;;;;;38.35;21.60;;;;;;;8.00;100.00;99768.53;5067881;28;20072;-93
2023/04/14 08:43:16;;;;;;;41.42;22.08;;;;;;;8.56;100.00;99756.22;5091039;28;20036;-93
2023/04/14 08:45:50;;;;;;;34.50;21.30;;;;;;;8.67;100.00;99727.50;5088491;28;20097;-95
2023/04/14 08:48:24;;;;;;;43.70;23.05;;;;;;;8.56;100.00;99746.50;5103040;28;20048;-94
2023/04/14 08:51:18;;;;;;;37.08;21.77;;;;;;;8.26;100.00;99732.16;4999177;28;20040;-94
2023/04/14 08:54:04;;;;;;;39.60;23.83;;;;;;;8.79;100.00;99743.59;5084878;28;20043;-94
2023/04/14 08:56:51;;;;;;;35.72;21.85;;;;;;;8.87;100.00;99697.47;5082214;28;20121;-93
2023/04/14 08:59:21;;;;;;;38.47;21.85;;;;;;;8.74;100.00;99719.22;5094956;28;20037;-94
2023/04/14 09:01:52;;;;;;;40.55;23.73;;;;;;;8.64;100.00;99789.25;5075459;28;20052;-93
2023/04/14 09:04:22;;;;;;;43.85;25.60;;;;;;;8.31;100.00;99789.03;5085400;28;20540;-93
2023/04/14 09:06:51;;;;;;;48.27;27.10;;;;;;;8.14;100.00;99790.75;5091105;28;20071;-95
2023/04/14 09:09:31;;;;;;;53.60;28.10;;;;;;;8.02;100.00;99781.63;5105364;28;20489;-95
2023/04/14 09:12:08;;;;;;;50.20;27.10;;;;;;;7.83;100.00;99722.78;5109216;22;20048;-93
2023/04/14 09:15:10;;;;;;;41.35;25.50;;;;;;;8.06;100.00;99754.19;5032955;28;20038;-93
2023/04/14 09:17:55;;;;;;;45.78;25.25;;;;;;;7.74;100.00;99718.75;5026393;28;20076;-93
2023/04/14 09:20:46;;;;;;;43.22;23.77;;;;;;;7.46;100.00;99668.25;5034083;28;20073;-92
2023/04/14 09:23:40;;;;;;;43.60;24.15;;;;;;;8.07;100.00;99742.69;5029236;28;20052;-93
2023/04/14 09:26:18;;;;;;;42.42;23.10;;;;;;;8.45;100.00;99746.19;5044720;28;20105;-93
2023/04/14 09:28:49;;;;;;;37.65;23.73;;;;;;;8.81;100.00;99762.00;5033060;28;20038;-94
2023/04/14 09:31:31;;;;;;;38.67;21.83;;;;;;;8.84;100.00;99739.84;5038062;28;20509;-94
2023/04/14 09:34:15;;;;;;;37.85;23.50;;;;;;;9.02;100.00;99754.78;5033548;28;20140;-94
2023/04/14 09:37:11;;;;;;;40.72;22.70;;;;;;;9.34;100.00;99761.91;5035707;28;20054;-95
2023/04/14 09:39:51;;;;;;;37.10;22.08;;;;;;;9.38;100.00;99726.47;5042567;28;20106;-92
2023/04/14 09:42:45;;;;;;;34.53;21.90;;;;;;;9.51;100.00;99758.38;5041021;28;20049;-95
2023/04/14 09:45:13;;;;;;;35.80;22.17;;;;;;;8.81;100.00;99661.69;5043666;28;20052;-94
2023/04/14 09:48:20;;;;;;;39.97;23.45;;;;;;;9.26;100.00;99731.56;5016936;28;20046;-94
2023/04/14 09:51:45;;;;;;;37.63;22.33;;;;;;;9.36;100.00;99703.69;5025915;28;20033;-96
2023/04/14 09:54:42;;;;;;;34.72;21.98;;;;;;;9.77;100.00;99725.25;5025323;28;20064;-93
2023/04/14 09:57:25;;;;;;;39.33;22.70;;;;;;;9.59;100.00;99653.13;5029867;28;20418;-93
2023/04/14 10:00:23;;;;;;;35.67;21.02;;;;;;;10.35;100.00;99740.63;5030826;28;20052;-93
2023/04/14 10:03:10;;;;;;;30.77;19.85;;;;;;;10.55;100.00;99735.00;5032714;28;20081;-93
2023/04/14 10:05:56;;;;;;;33.25;20.23;;;;;;;10.57;100.00;99735.78;5025327;28;20117;-94
2023/04/14 10:08:47;;;;;;;35.33;20.00;;;;;;;10.66;100.00;99735.28;5041870;28;20045;-93
2023/04/14 10:11:34;;;;;;;34.50;19.48;;;;;;;10.64;100.00;99733.66;5034229;28;20081;-94
2023/04/14 10:14:06;;;;;;;32.08;20.05;;;;;;;10.42;100.00;99711.06;5049978;28;20045;-93
2023/04/14 10:16:47;;;;;;;31.70;19.20;;;;;;;10.41;100.00;99732.31;5034753;28;20054;-93
2023/04/14 10:19:20;;;;;;;35.28;21.95;;;;;;;10.40;100.00;99697.03;5048291;28;20034;-92
2023/04/14 10:21:56;;;;;;;31.73;19.38;;;;;;;10.34;100.00;99678.03;5043256;28;20045;-94
2023/04/14 10:24:31;;;;;;;28.67;17.27;;;;;;;10.55;100.00;99727.06;5031727;28;20041;-94
2023/04/14 10:27:02;;;;;;;31.05;18.20;;;;;;;10.05;100.00;99640.84;5045217;28;20107;-93
2023/04/14 10:29:47;;;;;;;29.83;18.95;;;;;;;10.34;100.00;99678.88;5042368;28;20033;-93
2023/04/14 10:32:39;;;;;;;33.03;19.50;;;;;;;10.74;100.00;99716.28;5019087;28;20123;-94
2023/04/14 10:35:22;;;;;;;27.15;17.58;;;;;;;10.94;100.00;99717.75;5036721;28;20046;-94
2023/04/14 10:38:03;;;;;;;28.50;17.25;;;;;;;10.63;100.00;99629.53;5046743;28;20101;-94
2023/04/14 10:40:52;;;;;;;28.30;16.60;;;;;;;11.29;100.00;99700.63;5043701;28;20041;-95
2023/04/14 10:43:38;;;;;;;27.80;16.83;;;;;;;11.05;100.00;99625.25;5045448;28;20041;-94
2023/04/14 10:46:42;;;;;;;22.83;13.20;;;;;;;11.56;100.00;99675.03;5035002;28;20092;-93
2023/04/14 10:49:32;;;;;;;19.20;11.23;;;;;;;11.50;100.00;99638.28;5041347;28;20033;-95
2023/04/14 10:52:27;;;;;;;20.88;12.15;;;;;;;11.85;100.00;99649.38;5046706;28;20045;-94
2023/04/14 10:55:27;;;;;;;18.35;9.98;;;;;;;11.99;98.97;99700.69;5030989;28;20453;-95
2023/04/14 10:58:28;;;;;;;15.05;9.05;;;;;;;11.91;100.00;99690.56;5029113;28;20055;-93
2023/04/14 11:01:01;;;;;;;15.45;9.30;;;;;;;12.04;100.00;99694.16;5041271;28;20037;-93
2023/04/14 11:03:46;;;;;;;16.15;8.90;;;;;;;11.92;98.16;99657.78;5041693;28;20061;-92
2023/04/14 11:06:52;;;;;;;16.48;9.40;;;;;;;12.15;97.70;99681.03;5041177;28;20112;-90
2023/04/14 11:09:49;;;;;;;14.65;8.52;;;;;;;12.22;100.00;99674.38;5046063;28;20026;-92
2023/04/14 11:12:26;;;;;;;13.27;7.57;;;;;;;11.72;91.68;99583.91;5046933;28;20029;-91
2023/04/14 11:15:01;;;;;;;12.43;6.43;;;;;;;11.94;87.40;99593.06;5044607;28;20068;-92
2023/04/14 11:17:37;;;;;;;14.18;7.28;;;;;;;12.55;97.52;99662.50;5040976;28;20033;-93
2023/04/14 11:20:26;;;;;;;11.32;5.68;;;;;;;12.41;83.53;99605.00;5037966;28;20388;-93
2023/04/14 11:23:02;;;;;;;10.73;4.70;;;;;;;12.56;70.84;99603.13;5013158;28;20213;-90
2023/04/14 11:25:36;;;;;;;11.75;4.45;;;;;;;12.70;73.97;99615.47;5028178;28;20068;-93
2023/04/14 11:28:09;;;;;;;10.10;4.43;;;;;;;12.78;67.57;99619.28;5054894;28;20045;-92
2023/04/14 11:30:43;;;;;;;9.02;5.07;;;;;;;12.78;79.91;99616.63;5031768;28;20042;-93
2023/04/14 11:33:14;;;;;;;16.38;5.80;;;;;;;12.51;70.12;99622.00;5015094;28;20045;-93
2023/04/14 11:35:58;;;;;;;10.52;4.65;;;;;;;12.64;70.20;99648.59;5009864;28;20077;-91
2023/04/14 11:38:41;;;;;;;13.80;5.13;;;;;;;12.64;70.75;99641.47;4998431;28;20046;-91
2023/04/14 11:41:20;;;;;;;10.48;4.65;;;;;;;12.82;70.50;99620.78;5005877;28;20041;-93
2023/04/14 11:44:00;;;;;;;11.45;5.22;;;;;;;13.11;68.64;99600.16;5016425;28;21534;-92
2023/04/14 11:46:36;;;;;;;12.48;4.50;;;;;;;12.81;70.86;99560.63;5016597;28;20076;-93
2023/04/14 11:49:19;;;;;;;11.05;4.35;;;;;;;12.69;69.07;99630.53;5022451;28;20046;-93
2023/04/14 11:51:48;;;;;;;6.57;3.80;;;;;;;12.32;67.52;99592.31;5023472;28;20073;-93
2023/04/14 11:54:22;;;;;;;8.52;3.83;;;;;;;12.38;67.53;99610.50;5012311;28;20126;-92
2023/04/14 11:56:51;;;;;;;;;;;;;;;12.37;64.49;99622.09;5025447;28;20042;-92
2023/04/14 11:59:21;;;;;;;8.48;4.57;;;;;;;12.40;67.74;99598.00;5016229;28;20060;-93
2023/04/14 12:01:51;;;;;;;8.35;3.40;;;;;;;11.96;62.01;99531.94;5008614;28;20045;-92
2023/04/14 12:04:20;;;;;;;10.25;3.72;;;;;;;11.60;61.67;99525.41;5041713;28;20049;-94
2023/04/14 12:06:51;;;;;;;5.80;3.08;;;;;;;11.66;65.43;99526.81;5025049;28;20041;-93
2023/04/14 12:09:30;;;;;;;6.82;3.05;;;;;;;11.92;65.01;99533.09;5019445;28;20045;-92
2023/04/14 12:12:09;;;;;;;9.88;3.35;;;;;;;12.61;62.73;99591.22;5045927;28;20322;-94
2023/04/14 12:14:45;;;;;;;6.75;3.00;;;;;;;12.83;65.71;99582.63;5057208;28;20485;-92
2023/04/14 12:17:38;;;;;;;8.20;2.80;;;;;;;12.37;62.62;99509.72;5041209;28;20048;-92